Yasawa-I-Rara, Fiji
Current Conditions -  °F | °C
As of 2:00 AM on Tuesday 27 Jan 2015 (Local Time) from NFFN Reporting Station
Few Clouds Few Clouds  
Wind Chill: 73°   Ceiling: Unl
Heat Index: 73°   Visibility: 6mi
Dew Point: 73°   Wind: 3mph
Humidity: 100%   Direction: 100°E
Pressure: 29.59"   Gusts: NA
Location:  16.7°S, 177.58°E
Report Text: NFFN 261400Z 10003KT 9999 FEW028 23/23 Q1002 NOSIG
Loading
Personal Weather Stations






























Interactive Weather Map New forecast layout! Learn more

10-Day Weather Forecast

Advertisements
Track Severe Weather on mobile